createdAt,value
2017-10-27T00:00:23.058Z,11.30
2017-10-27T00:02:51.482Z,11.40
2017-10-27T00:05:19.918Z,11.40
2017-10-27T00:07:48.348Z,11.50
2017-10-27T00:10:17.378Z,11.50
2017-10-27T00:12:45.812Z,11.60
2017-10-27T00:15:14.241Z,11.60
2017-10-27T00:17:42.648Z,11.70
2017-10-27T00:20:11.843Z,11.80
2017-10-27T00:22:41.019Z,11.90
2017-10-27T00:25:09.432Z,11.90
2017-10-27T00:27:38.105Z,11.90
2017-10-27T00:30:07.277Z,11.80
2017-10-27T00:32:36.441Z,11.80
2017-10-27T00:35:04.538Z,11.80
2017-10-27T00:37:32.949Z,11.90
2017-10-27T00:40:02.122Z,11.90
2017-10-27T00:42:30.548Z,11.90
2017-10-27T00:44:58.959Z,11.90
2017-10-27T00:47:27.363Z,12.00
2017-10-27T00:49:55.783Z,11.90
2017-10-27T00:52:24.198Z,11.90
2017-10-27T00:54:52.615Z,11.80
2017-10-27T00:57:21.471Z,11.80
2017-10-27T00:59:49.207Z,11.80
2017-10-27T01:02:17.636Z,11.80
2017-10-27T01:04:46.843Z,11.80
2017-10-27T01:07:16.014Z,11.70
2017-10-27T01:09:44.414Z,11.70
2017-10-27T01:12:13.614Z,11.80
2017-10-27T01:14:42.786Z,12.00
2017-10-27T01:17:11.206Z,12.00
2017-10-27T01:19:39.286Z,12.00
2017-10-27T01:22:07.713Z,12.10
2017-10-27T01:24:35.686Z,12.00
2017-10-27T01:27:03.789Z,12.00
2017-10-27T01:29:31.519Z,12.00
2017-10-27T01:31:59.236Z,12.00
2017-10-27T01:34:26.975Z,12.10
2017-10-27T01:36:54.702Z,12.10
2017-10-27T01:39:22.442Z,12.00
2017-10-27T01:41:50.176Z,11.90
2017-10-27T01:44:17.898Z,11.90
2017-10-27T01:46:45.616Z,11.80
2017-10-27T01:49:13.699Z,11.70
2017-10-27T01:51:41.240Z,11.60
2017-10-27T01:54:08.951Z,11.40
2017-10-27T01:56:36.682Z,11.30
2017-10-27T01:59:04.403Z,11.20
2017-10-27T02:01:32.806Z,11.10
2017-10-27T02:04:00.899Z,11.00
2017-10-27T02:06:28.614Z,11.10
2017-10-27T02:08:56.342Z,11.20
2017-10-27T02:11:24.086Z,11.30
2017-10-27T02:13:52.166Z,11.40
2017-10-27T02:16:20.252Z,11.50
2017-10-27T02:18:48.014Z,11.50
2017-10-27T02:21:15.772Z,11.50
2017-10-27T02:23:43.490Z,11.60
2017-10-27T02:26:11.233Z,11.60
2017-10-27T02:28:38.956Z,11.70
2017-10-27T02:31:06.670Z,11.70
2017-10-27T02:33:34.403Z,11.70
2017-10-27T02:36:02.903Z,11.60
2017-10-27T02:38:30.984Z,11.60
2017-10-27T02:40:58.718Z,11.70
2017-10-27T02:43:27.901Z,11.60
2017-10-27T02:45:56.303Z,11.60
2017-10-27T02:48:25.683Z,11.50
2017-10-27T02:50:54.863Z,11.40
2017-10-27T02:53:23.271Z,11.40
2017-10-27T02:55:51.779Z,11.30
2017-10-27T02:58:20.193Z,11.30
2017-10-27T03:00:48.277Z,11.40
2017-10-27T03:03:16.713Z,11.40
2017-10-27T03:05:45.123Z,11.50
2017-10-27T03:08:13.183Z,11.50
2017-10-27T03:10:41.606Z,11.50
2017-10-27T03:13:10.783Z,11.60
2017-10-27T03:15:39.201Z,11.50
2017-10-27T03:18:07.944Z,11.70
2017-10-27T03:20:36.360Z,11.80
2017-10-27T03:23:04.772Z,11.80
2017-10-27T03:25:32.850Z,11.80
2017-10-27T03:28:01.260Z,11.80
2017-10-27T03:30:30.481Z,11.80
2017-10-27T03:32:58.919Z,11.80
2017-10-27T03:35:27.746Z,11.70
2017-10-27T03:37:56.155Z,11.70
2017-10-27T03:40:25.094Z,11.70
2017-10-27T03:42:53.923Z,11.80
2017-10-27T03:45:21.995Z,11.80
2017-10-27T03:47:50.080Z,11.80
2017-10-27T03:50:18.491Z,11.80
2017-10-27T03:52:46.557Z,11.90
2017-10-27T03:55:14.637Z,12.00
2017-10-27T03:57:42.361Z,11.90
2017-10-27T04:00:10.089Z,11.90
2017-10-27T04:02:38.511Z,12.00
2017-10-27T04:05:06.933Z,12.00
2017-10-27T04:07:35.816Z,12.00
2017-10-27T04:10:04.150Z,12.00
2017-10-27T04:12:32.565Z,12.10
2017-10-27T04:15:00.795Z,12.10
2017-10-27T04:17:29.029Z,12.20
2017-10-27T04:19:58.212Z,12.30
2017-10-27T04:22:26.630Z,12.30
2017-10-27T04:24:55.057Z,12.30
2017-10-27T04:27:23.130Z,12.30
2017-10-27T04:29:51.197Z,12.30
2017-10-27T04:32:19.637Z,12.30
2017-10-27T04:34:48.047Z,12.40
2017-10-27T04:37:16.450Z,12.40
2017-10-27T04:39:45.880Z,12.30
2017-10-27T04:42:14.285Z,12.40
2017-10-27T04:44:42.690Z,12.30
2017-10-27T04:47:10.771Z,12.30
2017-10-27T04:49:39.186Z,12.30
2017-10-27T04:52:07.620Z,12.30
2017-10-27T04:54:36.046Z,12.40
2017-10-27T04:57:04.454Z,12.40
2017-10-27T04:59:32.875Z,12.40
2017-10-27T05:02:02.076Z,12.40
2017-10-27T05:04:31.270Z,12.40
2017-10-27T05:07:00.443Z,12.40
2017-10-27T05:09:28.714Z,12.40
2017-10-27T05:11:57.918Z,12.50
2017-10-27T05:14:26.328Z,12.40
2017-10-27T05:17:01.021Z,12.50
2017-10-27T05:19:35.060Z,12.50
2017-10-27T05:22:09.826Z,12.50
2017-10-27T05:24:38.242Z,12.40
2017-10-27T05:27:06.648Z,12.40
2017-10-27T05:29:35.261Z,12.40
2017-10-27T05:32:03.687Z,12.40
2017-10-27T05:34:32.121Z,12.30
2017-10-27T05:37:00.549Z,12.20
2017-10-27T05:39:28.954Z,12.10
2017-10-27T05:41:57.364Z,12.10
2017-10-27T05:44:25.097Z,12.10
2017-10-27T05:46:52.825Z,12.10
2017-10-27T05:49:21.246Z,12.10
2017-10-27T05:51:49.325Z,12.00
2017-10-27T05:54:17.831Z,12.00
2017-10-27T05:56:46.243Z,12.00
2017-10-27T05:59:15.471Z,12.00
2017-10-27T06:01:43.875Z,12.00
2017-10-27T06:04:12.303Z,12.00
2017-10-27T06:06:41.492Z,12.10
2017-10-27T06:09:09.901Z,12.10
2017-10-27T06:11:38.327Z,12.10
2017-10-27T06:14:06.783Z,12.10
2017-10-27T06:16:35.207Z,12.10
2017-10-27T06:19:04.404Z,12.10
2017-10-27T06:21:33.603Z,12.20
2017-10-27T06:24:02.031Z,12.20
2017-10-27T06:26:30.455Z,12.20
2017-10-27T06:28:58.901Z,12.20
2017-10-27T06:31:27.356Z,12.30
2017-10-27T06:33:55.776Z,12.30
2017-10-27T06:36:24.211Z,12.30
2017-10-27T06:38:52.620Z,12.40
2017-10-27T06:41:21.025Z,12.40
2017-10-27T06:43:49.648Z,12.40
2017-10-27T06:46:18.198Z,12.40
2017-10-27T06:48:46.621Z,12.40
2017-10-27T06:51:14.364Z,12.40
2017-10-27T06:53:42.779Z,12.40
2017-10-27T06:56:11.185Z,12.40
2017-10-27T06:58:39.717Z,12.40
2017-10-27T07:01:08.183Z,12.40
2017-10-27T07:03:36.685Z,12.40
2017-10-27T07:06:05.884Z,12.40
2017-10-27T07:08:34.311Z,12.40
2017-10-27T07:11:03.499Z,12.50
2017-10-27T07:13:31.949Z,12.50
2017-10-27T07:16:00.364Z,12.50
2017-10-27T07:18:28.784Z,12.50
2017-10-27T07:20:56.879Z,12.60
2017-10-27T07:23:24.945Z,12.70
2017-10-27T07:25:53.362Z,12.70
2017-10-27T07:28:21.172Z,12.70
2017-10-27T07:30:48.890Z,12.70
2017-10-27T07:33:17.306Z,12.80
2017-10-27T07:35:45.045Z,13.00
2017-10-27T07:38:13.886Z,13.10
2017-10-27T07:40:41.607Z,13.10
2017-10-27T07:43:09.363Z,13.10
2017-10-27T07:45:37.863Z,13.10
2017-10-27T07:48:05.583Z,13.10
2017-10-27T07:50:34.114Z,13.20
2017-10-27T07:53:01.838Z,13.20
2017-10-27T07:55:30.326Z,13.00
2017-10-27T07:57:58.842Z,12.90
2017-10-27T08:00:26.570Z,12.90
2017-10-27T08:02:55.058Z,12.80
2017-10-27T08:05:22.802Z,12.80
2017-10-27T08:07:51.300Z,12.60
2017-10-27T08:10:19.499Z,12.60
2017-10-27T08:12:47.591Z,12.60
2017-10-27T08:15:15.323Z,12.60
2017-10-27T08:17:43.398Z,12.80
2017-10-27T08:20:11.145Z,13.30
2017-10-27T08:22:38.886Z,13.90
2017-10-27T08:25:07.741Z,13.90
2017-10-27T08:27:35.476Z,13.90
2017-10-27T08:30:03.218Z,13.50
2017-10-27T08:32:31.702Z,12.90
2017-10-27T08:34:59.798Z,12.90
2017-10-27T08:37:27.526Z,12.80
2017-10-27T08:39:56.351Z,12.40
2017-10-27T08:42:26.846Z,12.40
2017-10-27T08:44:55.339Z,12.00
2017-10-27T08:47:23.065Z,12.00
2017-10-27T08:49:50.815Z,11.80
2017-10-27T08:52:18.550Z,11.60
2017-10-27T08:54:46.283Z,11.50
2017-10-27T08:57:14.029Z,11.30
2017-10-27T08:59:42.863Z,11.00
2017-10-27T09:02:10.611Z,10.90
2017-10-27T09:04:38.349Z,10.90
2017-10-27T09:07:06.074Z,10.60
2017-10-27T09:09:33.797Z,10.40
2017-10-27T09:12:01.525Z,10.30
2017-10-27T09:14:30.020Z,10.10
2017-10-27T09:16:59.183Z,10.00
2017-10-27T09:19:27.255Z,10.00
2017-10-27T09:21:54.980Z,9.90
2017-10-27T09:24:22.700Z,9.90
2017-10-27T09:26:51.198Z,9.80
2017-10-27T09:29:18.727Z,9.70
2017-10-27T09:31:46.452Z,9.70
2017-10-27T09:34:14.180Z,9.70
2017-10-27T09:36:42.252Z,9.70
2017-10-27T09:39:09.978Z,9.80
2017-10-27T09:41:37.712Z,9.70
2017-10-27T09:44:05.431Z,9.70
2017-10-27T09:46:33.511Z,9.70
2017-10-27T09:49:01.599Z,9.60
2017-10-27T09:51:29.659Z,9.50
2017-10-27T09:53:57.379Z,9.60
2017-10-27T09:56:25.134Z,9.50
2017-10-27T09:58:52.858Z,9.50
2017-10-27T10:01:20.578Z,9.40
2017-10-27T10:03:49.352Z,9.30
2017-10-27T10:06:17.067Z,9.20
2017-10-27T10:08:45.132Z,9.20
2017-10-27T10:11:13.549Z,9.10
2017-10-27T10:13:41.353Z,9.00
2017-10-27T10:16:10.185Z,8.90
2017-10-27T10:18:37.921Z,8.90
2017-10-27T10:21:05.711Z,8.90
2017-10-27T10:23:33.780Z,8.90
2017-10-27T10:26:01.519Z,8.90
2017-10-27T10:28:29.596Z,9.00
2017-10-27T10:30:57.310Z,9.00
2017-10-27T10:33:25.048Z,9.00
2017-10-27T10:35:52.762Z,8.90
2017-10-27T10:38:21.242Z,8.90
2017-10-27T10:40:49.742Z,8.90
2017-10-27T10:43:17.462Z,8.90
2017-10-27T10:45:45.173Z,8.90
2017-10-27T10:48:12.902Z,8.90
2017-10-27T10:50:41.378Z,9.30
2017-10-27T10:53:09.861Z,9.40
2017-10-27T10:55:38.372Z,9.40
2017-10-27T10:58:06.539Z,9.40
2017-10-27T11:00:34.261Z,9.40
2017-10-27T11:03:02.342Z,9.40
2017-10-27T11:05:30.830Z,9.80
2017-10-27T11:07:59.320Z,10.00
2017-10-27T11:10:27.054Z,10.00
2017-10-27T11:12:55.113Z,10.40
2017-10-27T11:15:22.838Z,10.60
2017-10-27T11:17:50.581Z,10.60
2017-10-27T11:20:18.299Z,10.70
2017-10-27T11:22:46.368Z,10.90
2017-10-27T11:25:14.105Z,10.90
2017-10-27T11:27:42.193Z,10.70
2017-10-27T11:30:09.922Z,10.60
2017-10-27T11:32:37.667Z,10.80
2017-10-27T11:35:05.400Z,10.80
2017-10-27T11:37:33.122Z,10.80
2017-10-27T11:40:00.872Z,10.80
2017-10-27T11:42:28.587Z,10.60
2017-10-27T11:44:56.997Z,10.40
2017-10-27T11:47:25.413Z,10.40
2017-10-27T11:49:53.832Z,10.50
2017-10-27T11:52:23.016Z,10.90
2017-10-27T11:54:51.450Z,10.90
2017-10-27T11:57:19.866Z,10.90
2017-10-27T11:59:48.274Z,10.90
2017-10-27T12:02:17.474Z,11.00
2017-10-27T12:04:46.643Z,11.10
2017-10-27T12:07:14.713Z,11.10
2017-10-27T12:09:42.454Z,11.00
2017-10-27T12:12:10.860Z,11.10
2017-10-27T12:14:38.587Z,11.30
2017-10-27T12:17:06.668Z,11.50
2017-10-27T12:19:34.387Z,11.50
2017-10-27T12:22:02.119Z,11.90
2017-10-27T12:24:30.143Z,11.90
2017-10-27T12:26:57.860Z,11.80
2017-10-27T12:29:26.337Z,11.50
2017-10-27T12:31:54.075Z,11.50
2017-10-27T12:34:21.792Z,11.30
2017-10-27T12:36:49.520Z,11.10
2017-10-27T12:39:17.263Z,11.00
2017-10-27T12:41:44.987Z,11.00
2017-10-27T12:44:12.695Z,10.90
2017-10-27T12:46:41.219Z,10.90
2017-10-27T12:49:09.288Z,10.90
2017-10-27T12:51:37.002Z,10.80
2017-10-27T12:54:05.107Z,10.90
2017-10-27T12:56:34.283Z,10.80
2017-10-27T12:59:02.599Z,10.70
2017-10-27T13:01:30.342Z,10.70
2017-10-27T13:03:59.166Z,11.00
2017-10-27T13:06:27.594Z,11.00
2017-10-27T13:08:55.678Z,11.10
2017-10-27T13:11:24.515Z,11.30
2017-10-27T13:13:52.227Z,11.30
2017-10-27T13:16:20.727Z,11.20
2017-10-27T13:18:48.668Z,11.20
2017-10-27T13:21:16.389Z,11.30
2017-10-27T13:23:44.549Z,11.40
2017-10-27T13:26:12.949Z,11.40
2017-10-27T13:28:41.573Z,11.30
2017-10-27T13:31:10.087Z,11.20
2017-10-27T13:33:40.091Z,11.20
2017-10-27T13:36:07.808Z,11.30
2017-10-27T13:38:35.892Z,11.40
2017-10-27T13:41:04.390Z,11.40
2017-10-27T13:43:32.895Z,11.30
2017-10-27T13:46:00.978Z,11.20
2017-10-27T13:48:29.058Z,11.10
2017-10-27T13:50:56.774Z,11.00
2017-10-27T13:53:24.777Z,10.80
2017-10-27T13:55:52.480Z,10.70
2017-10-27T13:58:20.195Z,10.60
2017-10-27T14:00:47.931Z,10.50
2017-10-27T14:03:16.409Z,10.60
2017-10-27T14:05:44.902Z,10.50
2017-10-27T14:08:12.644Z,10.50
2017-10-27T14:10:41.126Z,10.50
2017-10-27T14:13:09.622Z,10.50
2017-10-27T14:15:37.523Z,10.50
2017-10-27T14:18:05.604Z,10.60
2017-10-27T14:20:33.322Z,10.50
2017-10-27T14:23:01.408Z,10.60
2017-10-27T14:25:29.825Z,10.80
2017-10-27T14:27:58.234Z,10.90
2017-10-27T14:30:27.431Z,11.00
2017-10-27T14:32:56.601Z,10.90
2017-10-27T14:35:25.018Z,10.90
2017-10-27T14:37:53.109Z,10.60
2017-10-27T14:40:20.831Z,10.20
2017-10-27T14:42:50.007Z,9.90
2017-10-27T14:45:18.421Z,9.80
2017-10-27T14:47:46.912Z,10.10
2017-10-27T14:50:17.230Z,10.10
2017-10-27T14:52:45.679Z,10.20
2017-10-27T14:55:14.090Z,10.30
2017-10-27T14:57:42.490Z,10.20
2017-10-27T15:00:10.234Z,10.20
2017-10-27T15:02:38.307Z,10.10
2017-10-27T15:05:06.792Z,10.00
2017-10-27T15:07:35.218Z,10.10
2017-10-27T15:10:03.645Z,10.10
2017-10-27T15:12:32.058Z,10.00
2017-10-27T15:15:00.206Z,10.00
2017-10-27T15:17:29.238Z,9.90
2017-10-27T15:19:57.645Z,9.90
2017-10-27T15:22:26.881Z,9.60
2017-10-27T15:24:55.291Z,9.60
2017-10-27T15:27:23.024Z,9.60
2017-10-27T15:29:51.451Z,9.50
2017-10-27T15:32:19.889Z,9.60
2017-10-27T15:34:48.005Z,9.50
2017-10-27T15:37:16.859Z,9.20
2017-10-27T15:39:45.278Z,9.20
2017-10-27T15:42:14.456Z,9.00
2017-10-27T15:44:43.082Z,9.00
2017-10-27T15:47:11.492Z,9.00
2017-10-27T15:49:39.901Z,9.00
2017-10-27T15:52:08.334Z,8.90
2017-10-27T15:54:36.751Z,8.90
2017-10-27T15:57:05.582Z,8.90
2017-10-27T15:59:34.126Z,8.90
2017-10-27T16:02:04.550Z,8.90
2017-10-27T16:04:33.018Z,8.90
2017-10-27T16:07:01.328Z,8.70
2017-10-27T16:09:30.542Z,8.70
2017-10-27T16:11:58.975Z,8.70
2017-10-27T16:14:27.405Z,8.70
2017-10-27T16:16:56.004Z,8.70
2017-10-27T16:19:25.262Z,8.70
2017-10-27T16:21:54.587Z,8.70
2017-10-27T16:24:22.562Z,8.70
2017-10-27T16:26:50.995Z,8.60
2017-10-27T16:29:19.411Z,8.70
2017-10-27T16:31:47.991Z,8.70
2017-10-27T16:34:16.969Z,8.60
2017-10-27T16:36:45.399Z,8.60
2017-10-27T16:39:13.865Z,8.70
2017-10-27T16:41:42.318Z,8.70
2017-10-27T16:44:10.755Z,8.70
2017-10-27T16:46:39.167Z,8.80
2017-10-27T16:49:08.408Z,8.80
2017-10-27T16:51:36.842Z,8.90
2017-10-27T16:54:06.062Z,9.00
2017-10-27T16:56:34.496Z,9.00
2017-10-27T16:59:02.573Z,9.00
2017-10-27T17:01:31.794Z,9.00
2017-10-27T17:03:59.858Z,9.00
2017-10-27T17:06:28.708Z,9.10
2017-10-27T17:08:57.106Z,9.10
2017-10-27T17:11:26.389Z,9.10
2017-10-27T17:13:54.471Z,9.00
2017-10-27T17:16:22.190Z,9.10
2017-10-27T17:18:49.931Z,9.10
2017-10-27T17:21:18.429Z,9.10
2017-10-27T17:23:46.495Z,9.10
2017-10-27T17:26:14.899Z,9.10
2017-10-27T17:28:43.470Z,9.10
2017-10-27T17:31:11.541Z,9.00
2017-10-27T17:33:39.950Z,8.90
2017-10-27T17:36:08.035Z,8.80
2017-10-27T17:38:36.871Z,8.60
2017-10-27T17:41:04.609Z,8.50
2017-10-27T17:43:32.701Z,8.50
2017-10-27T17:46:00.427Z,8.40
2017-10-27T17:48:29.261Z,8.40
2017-10-27T17:50:57.699Z,8.30
2017-10-27T17:53:26.885Z,8.30
2017-10-27T17:55:56.070Z,8.30
2017-10-27T17:58:25.286Z,8.30
2017-10-27T18:00:54.115Z,8.40
2017-10-27T18:03:22.184Z,8.30
2017-10-27T18:05:50.603Z,8.30
2017-10-27T18:08:19.058Z,8.40
2017-10-27T18:10:47.460Z,8.40
2017-10-27T18:13:15.877Z,8.40
2017-10-27T18:15:43.948Z,8.40
2017-10-27T18:18:12.019Z,8.40
2017-10-27T18:20:40.473Z,8.40
2017-10-27T18:23:09.654Z,8.40
2017-10-27T18:25:38.076Z,8.40
2017-10-27T18:28:06.512Z,8.50
2017-10-27T18:30:34.943Z,8.40
2017-10-27T18:33:03.351Z,8.40
2017-10-27T18:35:31.776Z,8.40
2017-10-27T18:38:01.182Z,8.40
2017-10-27T18:40:29.667Z,8.30
2017-10-27T18:42:58.095Z,8.30
2017-10-27T18:45:26.523Z,8.30
2017-10-27T18:47:54.936Z,8.30
2017-10-27T18:50:23.373Z,8.20
2017-10-27T18:52:52.543Z,8.20
2017-10-27T18:55:21.040Z,8.20
2017-10-27T18:57:49.462Z,8.20
2017-10-27T19:00:18.028Z,8.20
2017-10-27T19:02:46.474Z,8.20
2017-10-27T19:05:15.695Z,8.10
2017-10-27T19:07:44.128Z,8.10
2017-10-27T19:10:12.545Z,8.10
2017-10-27T19:12:40.979Z,8.10
2017-10-27T19:15:09.398Z,8.00
2017-10-27T19:17:38.580Z,8.10
2017-10-27T19:20:07.787Z,8.10
2017-10-27T19:22:36.971Z,8.10
2017-10-27T19:25:06.154Z,8.10
2017-10-27T19:27:34.236Z,8.10
2017-10-27T19:30:03.469Z,8.10
2017-10-27T19:32:31.576Z,8.10
2017-10-27T19:35:00.007Z,8.10
2017-10-27T19:37:28.419Z,8.10
2017-10-27T19:39:56.892Z,8.20
2017-10-27T19:42:25.344Z,8.20
2017-10-27T19:44:53.754Z,8.20
2017-10-27T19:47:22.174Z,8.20
2017-10-27T19:49:50.595Z,8.20
2017-10-27T19:52:18.999Z,8.20
2017-10-27T19:54:47.408Z,8.20
2017-10-27T19:57:16.145Z,8.10
2017-10-27T19:59:44.570Z,8.10
2017-10-27T20:02:12.970Z,8.10
2017-10-27T20:04:42.176Z,8.00
2017-10-27T20:07:10.578Z,8.00
2017-10-27T20:09:38.786Z,8.00
2017-10-27T20:12:07.206Z,8.00
2017-10-27T20:14:35.626Z,8.00
2017-10-27T20:17:04.030Z,8.00
2017-10-27T20:19:32.510Z,8.00
2017-10-27T20:22:00.225Z,8.00
2017-10-27T20:24:28.651Z,8.00
2017-10-27T20:26:57.078Z,8.00
2017-10-27T20:29:25.475Z,8.00
2017-10-27T20:31:53.887Z,8.00
2017-10-27T20:34:22.317Z,8.00
2017-10-27T20:36:50.731Z,8.00
2017-10-27T20:39:19.144Z,8.00
2017-10-27T20:41:48.333Z,8.00
2017-10-27T20:44:17.510Z,8.10
2017-10-27T20:46:45.915Z,8.00
2017-10-27T20:49:15.106Z,8.10
2017-10-27T20:51:44.270Z,8.00
2017-10-27T20:54:12.684Z,8.00
2017-10-27T20:56:41.858Z,8.00
2017-10-27T20:59:11.902Z,8.00
2017-10-27T21:01:41.134Z,8.00
2017-10-27T21:04:09.223Z,8.00
2017-10-27T21:06:37.447Z,8.00
2017-10-27T21:09:06.638Z,8.00
2017-10-27T21:11:35.822Z,8.00
2017-10-27T21:14:04.226Z,8.00
2017-10-27T21:16:32.638Z,8.10
2017-10-27T21:19:01.067Z,8.00
2017-10-27T21:21:30.248Z,8.00
2017-10-27T21:23:59.419Z,8.00
2017-10-27T21:26:27.848Z,8.00
2017-10-27T21:28:56.260Z,8.00
2017-10-27T21:31:24.671Z,8.00
2017-10-27T21:33:53.210Z,8.00
2017-10-27T21:36:21.610Z,7.90
2017-10-27T21:38:50.015Z,7.90
2017-10-27T21:41:18.446Z,7.80
2017-10-27T21:43:46.871Z,7.80
2017-10-27T21:46:15.284Z,7.80
2017-10-27T21:48:43.720Z,7.70
2017-10-27T21:51:12.147Z,7.80
2017-10-27T21:53:40.547Z,7.70
2017-10-27T21:56:08.966Z,7.70
2017-10-27T21:58:37.376Z,7.80
2017-10-27T22:01:05.474Z,7.80
2017-10-27T22:03:33.550Z,7.70
2017-10-27T22:06:01.630Z,7.70
2017-10-27T22:08:30.040Z,7.80
2017-10-27T22:10:58.477Z,7.80
2017-10-27T22:13:27.122Z,7.80
2017-10-27T22:15:56.306Z,7.80
2017-10-27T22:18:25.137Z,7.80
2017-10-27T22:20:52.679Z,7.80
2017-10-27T22:23:21.087Z,7.80
2017-10-27T22:25:49.506Z,7.90
2017-10-27T22:28:18.685Z,7.80
2017-10-27T22:30:47.090Z,7.80
2017-10-27T22:33:16.284Z,7.80
2017-10-27T22:35:45.467Z,7.80
2017-10-27T22:38:13.883Z,7.80
2017-10-27T22:40:41.621Z,7.90
2017-10-27T22:43:10.835Z,7.90
2017-10-27T22:45:39.248Z,7.80
2017-10-27T22:48:07.677Z,7.90
2017-10-27T22:50:36.860Z,7.90
2017-10-27T22:53:05.270Z,7.90
2017-10-27T22:55:33.682Z,7.90
2017-10-27T22:58:02.091Z,7.90
2017-10-27T23:00:30.494Z,7.90
2017-10-27T23:02:59.689Z,7.80
2017-10-27T23:05:28.676Z,7.80
2017-10-27T23:08:03.389Z,7.70
2017-10-27T23:10:31.790Z,7.70
2017-10-27T23:13:00.200Z,7.60
2017-10-27T23:15:28.621Z,7.60
2017-10-27T23:17:57.029Z,7.60
2017-10-27T23:20:25.436Z,7.60
2017-10-27T23:22:53.859Z,7.60
2017-10-27T23:25:23.048Z,7.50
2017-10-27T23:27:51.458Z,7.40
2017-10-27T23:30:19.886Z,7.40
2017-10-27T23:32:48.294Z,7.40
2017-10-27T23:35:16.690Z,7.40
2017-10-27T23:37:45.890Z,7.40
2017-10-27T23:40:15.066Z,7.40
2017-10-27T23:42:43.471Z,7.40
2017-10-27T23:45:11.900Z,7.40
2017-10-27T23:47:40.314Z,7.40
2017-10-27T23:50:09.490Z,7.40
2017-10-27T23:52:38.691Z,7.40
2017-10-27T23:55:07.106Z,7.40
2017-10-27T23:57:35.506Z,7.30
